createdAt,value
2023-05-04T00:01:34.006Z,13.05
2023-05-04T00:04:05.960Z,13.02
2023-05-04T00:06:38.461Z,13.00
2023-05-04T00:09:13.250Z,12.98
2023-05-04T00:11:45.034Z,12.97
2023-05-04T00:14:16.882Z,12.95
2023-05-04T00:16:48.798Z,12.93
2023-05-04T00:19:21.157Z,12.93
2023-05-04T00:21:52.733Z,12.92
2023-05-04T00:24:24.571Z,12.91
2023-05-04T00:26:56.270Z,12.90
2023-05-04T00:29:28.123Z,12.88
2023-05-04T00:31:59.833Z,12.88
2023-05-04T00:34:33.729Z,12.88
2023-05-04T00:37:06.517Z,12.87
2023-05-04T00:39:38.147Z,12.83
2023-05-04T00:42:10.194Z,12.80
2023-05-04T00:44:42.369Z,12.78
2023-05-04T00:47:13.944Z,12.77
2023-05-04T00:49:46.184Z,12.74
2023-05-04T00:52:17.798Z,12.71
2023-05-04T00:54:49.628Z,12.67
2023-05-04T00:57:21.512Z,12.66
2023-05-04T00:59:54.861Z,12.64
2023-05-04T01:02:26.554Z,12.84
2023-05-04T01:04:58.533Z,13.05
2023-05-04T01:07:46.422Z,13.19
2023-05-04T01:10:30.396Z,13.24
2023-05-04T01:13:13.367Z,13.29
2023-05-04T01:15:45.061Z,13.36
2023-05-04T01:18:17.372Z,13.43
2023-05-04T01:20:48.952Z,13.43
2023-05-04T01:23:21.134Z,13.46
2023-05-04T01:26:04.066Z,13.47
2023-05-04T01:28:53.981Z,13.48
2023-05-04T01:31:25.633Z,13.56
2023-05-04T01:33:57.760Z,13.63
2023-05-04T01:36:30.619Z,13.61
2023-05-04T01:39:03.372Z,13.57
2023-05-04T01:41:37.046Z,13.50
2023-05-04T01:44:09.005Z,13.45
2023-05-04T01:46:41.603Z,13.41
2023-05-04T01:49:13.621Z,13.41
2023-05-04T01:51:46.864Z,13.39
2023-05-04T01:54:18.730Z,13.34
2023-05-04T01:56:50.655Z,13.29
2023-05-04T01:59:22.735Z,13.22
2023-05-04T02:01:54.562Z,13.19
2023-05-04T02:04:26.739Z,13.14
2023-05-04T02:06:58.911Z,13.08
2023-05-04T02:09:31.871Z,13.01
2023-05-04T02:12:03.689Z,12.97
2023-05-04T02:14:35.383Z,12.95
2023-05-04T02:17:08.997Z,12.91
2023-05-04T02:19:41.236Z,12.88
2023-05-04T02:22:13.126Z,12.85
2023-05-04T02:24:44.768Z,12.80
2023-05-04T02:27:16.729Z,12.76
2023-05-04T02:29:49.555Z,12.78
2023-05-04T02:32:21.183Z,12.82
2023-05-04T02:34:54.329Z,12.85
2023-05-04T02:37:25.954Z,12.81
2023-05-04T02:39:57.505Z,12.76
2023-05-04T02:42:29.236Z,12.71
2023-05-04T02:45:00.984Z,12.62
2023-05-04T02:47:32.933Z,12.58
2023-05-04T02:50:06.413Z,12.57
2023-05-04T02:52:38.561Z,12.56
2023-05-04T02:55:29.603Z,12.51
2023-05-04T02:58:01.658Z,12.50
2023-05-04T03:00:33.951Z,12.52
2023-05-04T03:03:05.795Z,12.53
2023-05-04T03:05:38.644Z,12.55
2023-05-04T03:08:10.595Z,12.57
2023-05-04T03:10:42.567Z,12.54
2023-05-04T03:13:14.308Z,12.49
2023-05-04T03:15:46.074Z,12.43
2023-05-04T03:18:18.194Z,12.41
2023-05-04T03:20:51.333Z,12.44
2023-05-04T03:23:24.510Z,12.46
2023-05-04T03:25:56.713Z,12.49
2023-05-04T03:28:28.870Z,12.49
2023-05-04T03:31:01.397Z,12.50
2023-05-04T03:33:33.939Z,12.54
2023-05-04T03:36:06.371Z,12.59
2023-05-04T03:38:41.703Z,12.59
2023-05-04T03:41:14.506Z,12.60
2023-05-04T03:43:46.272Z,12.66
2023-05-04T03:46:18.158Z,12.68
2023-05-04T03:48:50.063Z,12.72
2023-05-04T03:51:22.150Z,12.76
2023-05-04T03:53:54.004Z,12.87
2023-05-04T03:56:26.066Z,12.95
2023-05-04T03:58:57.824Z,13.04
2023-05-04T04:01:31.323Z,13.10
2023-05-04T04:04:03.474Z,13.13
2023-05-04T04:06:35.813Z,13.14
2023-05-04T04:09:07.612Z,13.19
2023-05-04T04:11:39.198Z,13.20
2023-05-04T04:14:11.434Z,13.23
2023-05-04T04:16:46.096Z,13.28
2023-05-04T04:19:17.727Z,13.34
2023-05-04T04:21:49.545Z,13.36
2023-05-04T04:24:21.303Z,13.41
2023-05-04T04:26:53.408Z,13.50
2023-05-04T04:29:48.408Z,13.64
2023-05-04T04:32:32.089Z,13.73
2023-05-04T04:35:04.410Z,13.84
2023-05-04T04:37:36.246Z,13.89
2023-05-04T04:40:08.958Z,13.90
2023-05-04T04:42:41.997Z,13.93
2023-05-04T04:45:15.515Z,13.96
2023-05-04T04:47:47.329Z,14.00
2023-05-04T04:50:19.342Z,14.03
2023-05-04T04:52:51.178Z,14.02
2023-05-04T04:55:35.231Z,14.01
2023-05-04T04:58:08.807Z,14.00
2023-05-04T05:00:40.613Z,14.01
2023-05-04T05:03:12.951Z,14.08
2023-05-04T05:05:44.774Z,14.10
2023-05-04T05:08:16.760Z,14.15
2023-05-04T05:10:48.719Z,14.27
2023-05-04T05:13:20.860Z,14.38
2023-05-04T05:15:52.822Z,14.42
2023-05-04T05:18:24.983Z,14.44
2023-05-04T05:20:57.826Z,14.50
2023-05-04T05:23:29.514Z,14.48
2023-05-04T05:26:03.257Z,14.51
2023-05-04T05:28:35.582Z,14.63
2023-05-04T05:31:07.497Z,14.77
2023-05-04T05:33:40.201Z,14.83
2023-05-04T05:36:12.395Z,14.89
2023-05-04T05:38:43.938Z,15.08
2023-05-04T05:41:15.975Z,15.24
2023-05-04T05:43:47.979Z,15.41
2023-05-04T05:46:19.761Z,15.47
2023-05-04T05:48:51.704Z,15.54
2023-05-04T05:51:23.488Z,15.66
2023-05-04T05:53:55.729Z,15.86
2023-05-04T05:56:30.801Z,16.12
2023-05-04T05:59:03.275Z,16.28
2023-05-04T06:01:35.381Z,16.41
2023-05-04T06:04:07.048Z,16.54
2023-05-04T06:06:39.012Z,16.73
2023-05-04T06:09:10.994Z,16.91
2023-05-04T06:11:43.719Z,17.00
2023-05-04T06:14:15.835Z,17.09
2023-05-04T06:16:47.538Z,17.13
2023-05-04T06:19:19.811Z,17.14
2023-05-04T06:21:51.797Z,17.23
2023-05-04T06:24:25.276Z,17.41
2023-05-04T06:26:58.506Z,17.54
2023-05-04T06:29:30.696Z,17.75
2023-05-04T06:32:03.022Z,17.93
2023-05-04T06:34:35.953Z,18.01
2023-05-04T06:37:07.993Z,17.96
2023-05-04T06:39:39.575Z,18.05
2023-05-04T06:42:12.398Z,18.26
2023-05-04T06:44:45.450Z,18.50
2023-05-04T06:47:17.362Z,18.71
2023-05-04T06:49:49.222Z,18.90
2023-05-04T06:52:21.846Z,19.01
2023-05-04T06:54:53.851Z,19.11
2023-05-04T06:57:25.707Z,19.31
2023-05-04T06:59:57.388Z,19.45
2023-05-04T07:02:29.256Z,19.47
2023-05-04T07:05:02.232Z,19.37
2023-05-04T07:07:34.045Z,19.29
2023-05-04T07:10:19.688Z,19.17
2023-05-04T07:12:51.504Z,19.10
2023-05-04T07:15:23.481Z,19.22
2023-05-04T07:17:55.469Z,19.39
2023-05-04T07:20:27.793Z,19.55
2023-05-04T07:23:01.849Z,19.68
2023-05-04T07:25:34.868Z,19.75
2023-05-04T07:28:21.163Z,19.80
2023-05-04T07:30:57.712Z,20.06
2023-05-04T07:33:31.164Z,20.24
2023-05-04T07:36:07.662Z,20.23
2023-05-04T07:38:39.544Z,20.02
2023-05-04T07:41:11.534Z,19.89
2023-05-04T07:43:43.352Z,19.90
2023-05-04T07:46:15.080Z,20.08
2023-05-04T07:48:46.659Z,20.28
2023-05-04T07:51:18.715Z,20.41
2023-05-04T07:53:50.405Z,20.53
2023-05-04T07:56:21.966Z,20.55
2023-05-04T07:58:53.850Z,20.64
2023-05-04T08:01:26.245Z,20.81
2023-05-04T08:03:57.928Z,20.94
2023-05-04T08:06:29.695Z,20.84
2023-05-04T08:09:01.611Z,20.71
2023-05-04T08:11:35.469Z,20.67
2023-05-04T08:14:07.705Z,20.57
2023-05-04T08:16:42.573Z,20.49
2023-05-04T08:19:14.399Z,20.46
2023-05-04T08:21:46.218Z,20.41
2023-05-04T08:24:18.882Z,20.40
2023-05-04T08:27:03.578Z,20.41
2023-05-04T08:29:25.340Z,20.59
2023-05-04T08:31:59.508Z,20.85
2023-05-04T08:34:31.538Z,21.15
2023-05-04T08:37:03.244Z,21.53
2023-05-04T08:39:35.053Z,21.86
2023-05-04T08:42:07.561Z,22.09
2023-05-04T08:44:42.087Z,22.17
2023-05-04T08:47:15.154Z,22.29
2023-05-04T08:49:47.095Z,22.41
2023-05-04T08:52:19.523Z,22.55
2023-05-04T08:54:54.810Z,22.63
2023-05-04T08:57:26.827Z,22.72
2023-05-04T08:59:58.872Z,22.85
2023-05-04T09:02:33.388Z,23.01
2023-05-04T09:05:05.312Z,23.13
2023-05-04T09:07:37.864Z,23.21
2023-05-04T09:10:14.835Z,23.36
2023-05-04T09:12:47.351Z,23.50
2023-05-04T09:15:19.746Z,23.67
2023-05-04T09:17:59.160Z,23.87
2023-05-04T09:20:33.231Z,24.02
2023-05-04T09:25:53.005Z,24.41
2023-05-04T09:28:40.121Z,24.51
2023-05-04T09:31:12.111Z,24.41
2023-05-04T09:33:44.786Z,24.34
2023-05-04T09:36:21.964Z,24.27
2023-05-04T09:38:54.002Z,24.25
2023-05-04T09:41:33.864Z,24.13
2023-05-04T09:44:05.672Z,23.96
2023-05-04T09:46:37.911Z,23.84
2023-05-04T09:49:10.864Z,23.77
2023-05-04T09:51:42.961Z,23.73
2023-05-04T09:54:14.653Z,23.61
2023-05-04T09:56:49.441Z,23.47
2023-05-04T09:59:21.216Z,23.43
2023-05-04T10:01:53.525Z,23.35
2023-05-04T10:04:46.711Z,23.20
2023-05-04T10:07:19.042Z,23.11
2023-05-04T10:09:51.539Z,22.94
2023-05-04T10:12:23.365Z,22.97
2023-05-04T10:14:54.926Z,23.08
2023-05-04T10:17:36.069Z,23.10
2023-05-04T10:20:12.190Z,23.05
2023-05-04T10:23:25.737Z,23.10
2023-05-04T10:26:16.409Z,23.13
2023-05-04T10:29:09.234Z,22.84
2023-05-04T10:31:44.579Z,22.72
2023-05-04T10:34:35.798Z,22.61
2023-05-04T10:37:11.734Z,22.40
2023-05-04T10:39:52.425Z,22.34
2023-05-04T10:42:24.184Z,22.15
2023-05-04T10:44:57.019Z,21.96
2023-05-04T10:47:34.389Z,21.74
2023-05-04T10:50:07.334Z,21.49
2023-05-04T10:52:49.283Z,21.31
2023-05-04T10:55:21.641Z,21.23
2023-05-04T10:57:57.951Z,21.27
2023-05-04T11:00:40.747Z,21.31
2023-05-04T11:03:12.512Z,21.32
2023-05-04T11:05:50.145Z,21.22
2023-05-04T11:08:24.504Z,21.02
2023-05-04T11:11:07.626Z,20.79
2023-05-04T11:13:48.203Z,20.55
2023-05-04T11:16:27.052Z,20.34
2023-05-04T11:19:12.698Z,20.23
2023-05-04T11:21:45.399Z,20.19
2023-05-04T11:24:17.472Z,20.15
2023-05-04T11:26:49.792Z,20.10
2023-05-04T11:29:21.541Z,20.01
2023-05-04T11:31:56.462Z,19.89
2023-05-04T11:34:28.331Z,19.82
2023-05-04T11:37:00.296Z,19.79
2023-05-04T11:39:44.453Z,19.69
2023-05-04T11:42:16.491Z,19.64
2023-05-04T11:44:48.125Z,19.68
2023-05-04T11:47:19.988Z,19.78
2023-05-04T11:49:51.667Z,19.87
2023-05-04T11:52:25.908Z,19.91
2023-05-04T11:54:58.258Z,19.93
2023-05-04T11:57:31.784Z,19.91
2023-05-04T12:00:05.473Z,19.91
2023-05-04T12:02:37.954Z,20.00
2023-05-04T12:05:14.089Z,20.08
2023-05-04T12:07:46.376Z,20.19
2023-05-04T12:10:27.263Z,20.37
2023-05-04T12:12:59.608Z,20.35
2023-05-04T12:15:32.913Z,20.31
2023-05-04T12:18:04.854Z,20.26
2023-05-04T12:20:37.263Z,20.22
2023-05-04T12:23:08.985Z,20.15
2023-05-04T12:25:51.027Z,20.15
2023-05-04T12:28:14.240Z,20.06
2023-05-04T12:30:46.901Z,19.95
2023-05-04T12:33:18.838Z,19.79
2023-05-04T12:35:50.902Z,19.70
2023-05-04T12:38:22.900Z,19.67
2023-05-04T12:40:55.242Z,19.68
2023-05-04T12:43:26.980Z,19.74
2023-05-04T12:45:58.853Z,19.66
2023-05-04T12:48:32.636Z,19.48
2023-05-04T12:51:05.198Z,19.30
2023-05-04T12:53:37.763Z,19.26
2023-05-04T12:58:53.393Z,19.29
2023-05-04T13:01:25.233Z,19.22
2023-05-04T13:03:57.009Z,19.15
2023-05-04T13:09:13.359Z,19.00
2023-05-04T13:11:45.544Z,18.92
2023-05-04T13:14:19.182Z,18.92
2023-05-04T13:16:51.553Z,18.89
2023-05-04T13:19:23.674Z,18.82
2023-05-04T13:21:56.128Z,18.78
2023-05-04T13:24:29.661Z,18.77
2023-05-04T13:27:01.537Z,18.76
2023-05-04T13:29:34.403Z,18.76
2023-05-04T13:32:07.801Z,18.71
2023-05-04T13:34:40.030Z,18.59
2023-05-04T13:37:13.547Z,18.48
2023-05-04T13:39:45.575Z,18.42
2023-05-04T13:42:18.008Z,18.28
2023-05-04T13:44:49.854Z,18.18
2023-05-04T13:47:23.606Z,18.13
2023-05-04T13:49:55.330Z,18.13
2023-05-04T13:52:28.000Z,18.10
2023-05-04T13:54:59.907Z,18.01
2023-05-04T13:57:31.985Z,17.94
2023-05-04T14:00:08.469Z,17.91
2023-05-04T14:02:47.345Z,17.87
2023-05-04T14:05:21.668Z,17.79
2023-05-04T14:07:54.044Z,17.76
2023-05-04T14:10:26.236Z,17.67
2023-05-04T14:12:57.978Z,17.57
2023-05-04T14:15:29.718Z,17.49
2023-05-04T14:18:01.327Z,17.41
2023-05-04T14:20:33.398Z,17.37
2023-05-04T14:23:05.459Z,17.32
2023-05-04T14:25:41.877Z,17.30
2023-05-04T14:28:15.630Z,17.32
2023-05-04T14:30:47.320Z,17.35
2023-05-04T14:33:19.148Z,17.37
2023-05-04T14:35:51.264Z,17.39
2023-05-04T14:38:23.084Z,17.39
2023-05-04T14:40:55.514Z,17.34
2023-05-04T14:43:27.594Z,17.27
2023-05-04T14:46:02.368Z,17.23
2023-05-04T14:48:34.518Z,17.19
2023-05-04T14:51:07.289Z,17.14
2023-05-04T14:53:39.786Z,17.11
2023-05-04T14:56:11.974Z,17.06
2023-05-04T14:58:43.559Z,16.96
2023-05-04T15:01:15.716Z,16.93
2023-05-04T15:03:47.443Z,16.87
2023-05-04T15:06:19.485Z,16.81
2023-05-04T15:08:51.128Z,16.76
2023-05-04T15:11:22.895Z,16.72
2023-05-04T15:13:57.212Z,16.66
2023-05-04T15:16:31.016Z,16.54
2023-05-04T15:19:03.338Z,16.45
2023-05-04T15:21:35.907Z,16.38
2023-05-04T15:24:07.617Z,16.34
2023-05-04T15:26:40.264Z,16.31
2023-05-04T15:29:12.087Z,16.25
2023-05-04T15:31:44.409Z,16.22
2023-05-04T15:34:18.458Z,16.17
2023-05-04T15:36:50.162Z,16.14
2023-05-04T15:39:21.834Z,16.10
2023-05-04T15:41:54.349Z,16.06
2023-05-04T15:44:27.796Z,15.99
2023-05-04T15:47:20.670Z,15.92
2023-05-04T15:49:53.790Z,15.90
2023-05-04T15:52:27.107Z,15.88
2023-05-04T15:55:12.391Z,15.88
2023-05-04T15:57:34.904Z,15.86
2023-05-04T16:00:09.017Z,15.86
2023-05-04T16:02:41.659Z,15.82
2023-05-04T16:05:13.959Z,15.72
2023-05-04T16:07:46.242Z,15.64
2023-05-04T16:10:18.351Z,15.55
2023-05-04T16:12:50.555Z,15.52
2023-05-04T16:15:22.468Z,15.47
2023-05-04T16:17:54.318Z,15.43
2023-05-04T16:20:26.908Z,15.41
2023-05-04T16:22:58.801Z,15.40
2023-05-04T16:25:31.003Z,15.36
2023-05-04T16:28:02.675Z,15.34
2023-05-04T16:30:35.350Z,15.25
2023-05-04T16:33:09.361Z,15.19
2023-05-04T16:35:41.784Z,15.14
2023-05-04T16:38:13.848Z,15.12
2023-05-04T16:40:45.793Z,15.05
2023-05-04T16:43:27.683Z,15.02
2023-05-04T16:45:59.835Z,15.00
2023-05-04T16:48:31.895Z,14.94
2023-05-04T16:51:05.630Z,14.88
2023-05-04T16:53:38.557Z,14.78
2023-05-04T16:56:19.704Z,14.73
2023-05-04T16:58:52.544Z,14.68
2023-05-04T17:01:25.127Z,14.63
2023-05-04T17:03:57.336Z,14.59
2023-05-04T17:06:29.627Z,14.57
2023-05-04T17:09:03.757Z,14.54
2023-05-04T17:11:35.808Z,14.49
2023-05-04T17:14:08.806Z,14.46
2023-05-04T17:16:41.198Z,14.40
2023-05-04T17:19:13.428Z,14.34
2023-05-04T17:21:45.533Z,14.31
2023-05-04T17:24:18.648Z,14.29
2023-05-04T17:26:50.975Z,14.29
2023-05-04T17:29:23.270Z,14.29
2023-05-04T17:31:55.702Z,14.25
2023-05-04T17:34:27.683Z,14.21
2023-05-04T17:37:02.633Z,14.15
2023-05-04T17:39:35.781Z,14.10
2023-05-04T17:42:19.932Z,14.04
2023-05-04T17:44:52.182Z,14.05
2023-05-04T17:47:23.864Z,14.05
2023-05-04T17:49:55.519Z,14.01
2023-05-04T17:52:27.071Z,13.96
2023-05-04T17:54:59.079Z,13.96
2023-05-04T17:57:31.184Z,13.94
2023-05-04T18:00:05.585Z,13.90
2023-05-04T18:02:38.642Z,13.87
2023-05-04T18:05:11.074Z,13.83
2023-05-04T18:07:43.540Z,13.84
2023-05-04T18:10:15.472Z,13.89
2023-05-04T18:12:48.512Z,13.88
2023-05-04T18:15:23.580Z,13.85
2023-05-04T18:17:56.185Z,13.82
2023-05-04T18:20:28.569Z,13.84
2023-05-04T18:23:01.377Z,14.02
2023-05-04T18:25:34.561Z,14.34
2023-05-04T18:30:51.645Z,14.74
2023-05-04T18:33:23.644Z,14.67
2023-05-04T18:35:57.052Z,14.51
2023-05-04T18:38:30.725Z,14.32
2023-05-04T18:41:03.317Z,14.16
2023-05-04T18:43:37.782Z,14.03
2023-05-04T18:46:10.101Z,13.93
2023-05-04T18:48:41.973Z,13.84
2023-05-04T18:51:14.418Z,13.75
2023-05-04T18:53:48.280Z,13.63
2023-05-04T18:59:05.764Z,13.52
2023-05-04T19:01:38.836Z,13.44
2023-05-04T19:04:12.825Z,13.38
2023-05-04T19:06:47.783Z,13.34
2023-05-04T19:09:21.446Z,13.31
2023-05-04T19:11:53.490Z,13.26
2023-05-04T19:14:28.799Z,13.24
2023-05-04T19:17:01.558Z,13.18
2023-05-04T19:19:37.796Z,13.12
2023-05-04T19:22:11.630Z,13.05
2023-05-04T19:24:43.728Z,12.99
2023-05-04T19:27:17.457Z,12.96
2023-05-04T19:29:49.945Z,12.98
2023-05-04T19:32:24.817Z,12.98
2023-05-04T19:34:56.638Z,12.93
2023-05-04T19:37:28.772Z,12.85
2023-05-04T19:40:00.903Z,12.80
2023-05-04T19:42:33.535Z,12.73
2023-05-04T19:45:06.609Z,12.71
2023-05-04T19:47:39.171Z,12.67
2023-05-04T19:55:39.211Z,12.58
2023-05-04T19:58:11.288Z,12.55
2023-05-04T20:00:43.187Z,12.54
2023-05-04T20:03:17.145Z,12.53
2023-05-04T20:05:48.933Z,12.48
2023-05-04T20:08:20.895Z,12.44
2023-05-04T20:10:52.649Z,12.41
2023-05-04T20:13:25.662Z,12.40
2023-05-04T20:15:57.157Z,12.42
2023-05-04T20:18:28.989Z,12.41
2023-05-04T20:21:01.431Z,12.42
2023-05-04T20:23:34.265Z,12.43
2023-05-04T20:26:06.308Z,12.44
2023-05-04T20:28:38.830Z,12.43
2023-05-04T20:31:10.506Z,12.47
2023-05-04T20:33:42.298Z,12.56
2023-05-04T20:36:14.025Z,12.66
2023-05-04T20:38:45.847Z,12.68
2023-05-04T20:41:17.770Z,12.74
2023-05-04T20:43:50.281Z,12.80
2023-05-04T20:46:22.056Z,12.84
2023-05-04T20:48:54.455Z,12.86
2023-05-04T20:51:27.163Z,12.86
2023-05-04T20:53:59.301Z,12.87
2023-05-04T20:56:30.897Z,12.91
2023-05-04T20:59:02.875Z,12.96
2023-05-04T21:01:34.880Z,12.98
2023-05-04T21:04:07.097Z,13.00
2023-05-04T21:06:39.161Z,13.00
2023-05-04T21:09:11.472Z,12.91
2023-05-04T21:11:43.708Z,12.86
2023-05-04T21:14:15.561Z,12.85
2023-05-04T21:16:47.429Z,12.83
2023-05-04T21:19:19.356Z,12.83
2023-05-04T21:21:51.310Z,12.83
2023-05-04T21:24:23.632Z,12.85
2023-05-04T21:26:55.500Z,12.85
2023-05-04T21:29:28.335Z,12.83
2023-05-04T21:32:00.082Z,12.82
2023-05-04T21:34:31.981Z,12.76
2023-05-04T21:37:04.367Z,12.68
2023-05-04T21:39:36.949Z,12.62
2023-05-04T21:42:09.618Z,12.61
2023-05-04T21:44:42.895Z,12.59
2023-05-04T21:47:14.704Z,12.54
2023-05-04T21:49:46.884Z,12.52
2023-05-04T21:52:18.586Z,12.49
2023-05-04T21:54:50.634Z,12.44
2023-05-04T21:57:22.385Z,12.36
2023-05-04T21:59:54.494Z,12.28
2023-05-04T22:02:26.678Z,12.21
2023-05-04T22:04:58.534Z,12.15
2023-05-04T22:07:30.319Z,12.08
2023-05-04T22:10:01.914Z,12.03
2023-05-04T22:12:33.801Z,11.99
2023-05-04T22:15:06.710Z,11.90
2023-05-04T22:17:38.901Z,11.87
2023-05-04T22:20:11.697Z,11.84
2023-05-04T22:22:44.148Z,11.83
2023-05-04T22:25:16.113Z,11.84
2023-05-04T22:27:48.085Z,11.91
2023-05-04T22:30:21.530Z,11.99
2023-05-04T22:32:53.961Z,12.04
2023-05-04T22:35:25.736Z,12.01
2023-05-04T22:37:57.751Z,11.98
2023-05-04T22:40:29.553Z,11.99
2023-05-04T22:43:01.473Z,11.97
2023-05-04T22:45:35.994Z,11.96
2023-05-04T22:48:07.623Z,11.98
2023-05-04T22:50:39.641Z,11.98
2023-05-04T22:53:11.665Z,11.96
2023-05-04T22:55:43.461Z,11.96
2023-05-04T22:58:15.777Z,11.94
2023-05-04T23:00:47.962Z,11.91
2023-05-04T23:03:19.724Z,11.88
2023-05-04T23:05:51.459Z,11.87
2023-05-04T23:08:23.996Z,11.86
2023-05-04T23:10:55.532Z,11.82
2023-05-04T23:13:27.808Z,11.79
2023-05-04T23:15:59.652Z,11.77
2023-05-04T23:18:33.186Z,11.77
2023-05-04T23:21:05.127Z,11.78
2023-05-04T23:23:38.446Z,11.82
2023-05-04T23:26:10.413Z,11.86
2023-05-04T23:28:42.221Z,11.84
2023-05-04T23:31:14.058Z,11.84
2023-05-04T23:33:45.696Z,11.83
2023-05-04T23:36:17.444Z,11.82
2023-05-04T23:38:49.180Z,11.81
2023-05-04T23:41:20.888Z,11.82
2023-05-04T23:43:52.725Z,11.81
2023-05-04T23:46:24.484Z,11.81
2023-05-04T23:48:56.123Z,11.82
2023-05-04T23:51:28.602Z,11.84
2023-05-04T23:54:00.356Z,11.84
2023-05-04T23:56:33.525Z,11.84
2023-05-04T23:59:05.786Z,11.84
